Pasqua, Canada
Current Conditions -  °F | °C
As of 8:00 PM on Sunday 21 Dec 2014 (Local Time) from CYQR Reporting Station
Overcast Overcast  
Wind Chill: 14°   Ceiling: 7200
Heat Index: 25°   Visibility: 15mi
Dew Point: 25°   Wind: 12mph
Humidity: 100%   Direction: 110°ESE
Pressure: 29.39"   Gusts: NA
Location:  50.37°N, 105.38°W
Report Text: CYQR 220200Z 11010KT 15SM OVC072 M04/M04 A2939 RMK AC8 SLP988
Loading
Personal Weather Stations






























Interactive Weather Map New forecast layout! Learn more

10-Day Weather Forecast

Advertisements
Track Severe Weather on mobile